Time;durP1;ratioP1;P1;durP2;ratioP2;P2;SDS_P1;SDS_P2;PMS_P1;PMS_P2;Temp;Humidity;BMP_temperature;BMP_pressure;BME280_temperature;BME280_humidity;BME280_pressure;Samples;Min_cycle;Max_cycle;Signal;HPM_P1;HPM_P2
2022/06/21 00:03:41;;;;;;;2.20;0.70;;;;;;;9.95;88.70;101702.28;10520111;28;20052;-79
2022/06/21 00:08:43;;;;;;;2.28;0.20;;;;;;;9.89;87.24;101702.03;10537132;28;20475;-81
2022/06/21 00:13:44;;;;;;;0.30;0.10;;;;;;;10.02;87.50;101714.59;10541538;28;20047;-81
2022/06/21 00:18:48;;;;;;;0.38;0.20;;;;;;;9.71;90.34;101712.44;10538558;28;20036;-81
2022/06/21 00:23:51;;;;;;;0.28;0.28;;;;;;;9.70;87.31;101716.72;10514985;28;20048;-81
2022/06/21 00:28:53;;;;;;;0.20;0.20;;;;;;;9.63;85.51;101707.84;10508108;28;20036;-81
2022/06/21 00:33:56;;;;;;;0.20;0.20;;;;;;;9.61;87.71;101726.63;10534910;28;20464;-80
2022/06/21 00:39:03;;;;;;;0.00;0.00;;;;;;;9.49;87.03;101711.53;10539640;28;20055;-81
2022/06/21 00:44:11;;;;;;;0.45;0.20;;;;;;;9.41;88.16;101707.75;10536354;28;20148;-81
2022/06/21 00:49:20;;;;;;;0.10;0.10;;;;;;;9.45;88.46;101707.94;10519283;28;20084;-81
2022/06/21 00:54:26;;;;;;;0.80;0.63;;;;;;;9.40;87.47;101717.16;10516290;28;20177;-81
2022/06/21 00:59:33;;;;;;;0.38;0.13;;;;;;;9.28;85.92;101706.31;10533139;28;20051;-81
2022/06/21 01:04:41;;;;;;;0.00;0.00;;;;;;;9.13;87.88;101699.69;10549520;28;20150;-81
2022/06/21 01:09:55;;;;;;;0.30;0.13;;;;;;;9.24;87.41;101689.88;10516524;28;20055;-81
2022/06/21 01:15:02;;;;;;;0.03;0.03;;;;;;;8.92;88.12;101693.56;10534932;28;20044;-81
2022/06/21 01:20:10;;;;;;;2.78;0.80;;;;;;;9.02;89.00;101698.34;10539868;28;20044;-81
2022/06/21 01:25:25;;;;;;;0.03;0.03;;;;;;;9.06;87.72;101695.06;10539515;28;20044;-80
2022/06/21 01:30:28;;;;;;;0.10;0.10;;;;;;;8.85;89.17;101698.44;10543152;28;20043;-81
2022/06/21 01:35:41;;;;;;;0.63;0.20;;;;;;;8.97;88.01;101679.25;10534734;28;20434;-81
2022/06/21 01:40:53;;;;;;;0.13;0.10;;;;;;;8.76;87.35;101684.31;10526400;28;20048;-80
2022/06/21 01:46:00;;;;;;;1.35;0.82;;;;;;;8.68;88.58;101694.22;10523860;28;20062;-80
2022/06/21 01:51:09;;;;;;;0.40;0.28;;;;;;;8.43;90.71;101705.88;10534663;28;20131;-81
2022/06/21 01:56:21;;;;;;;0.75;0.38;;;;;;;8.49;90.66;101688.22;10541150;28;20572;-81
2022/06/21 02:01:33;;;;;;;0.60;0.20;;;;;;;8.35;88.85;101684.97;10536080;28;20437;-80
2022/06/21 02:06:40;;;;;;;0.55;0.38;;;;;;;8.30;88.32;101677.88;10520076;28;20101;-80
2022/06/21 02:11:52;;;;;;;0.05;0.05;;;;;;;8.20;88.86;101667.16;10543682;28;20044;-80
2022/06/21 02:17:07;;;;;;;0.17;0.17;;;;;;;8.09;92.44;101652.91;10519507;28;20070;-81
2022/06/21 02:22:21;;;;;;;0.10;0.10;;;;;;;7.84;92.67;101646.63;10535498;28;20039;-81
2022/06/21 02:27:30;;;;;;;0.20;0.20;;;;;;;7.78;94.06;101652.31;10540067;28;20433;-81
2022/06/21 02:32:35;;;;;;;0.25;0.25;;;;;;;7.97;93.67;101654.91;10538688;28;20043;-80
2022/06/21 02:37:37;;;;;;;0.00;0.00;;;;;;;8.02;90.98;101648.28;10530137;28;20040;-81
2022/06/21 02:42:42;;;;;;;0.00;0.00;;;;;;;7.83;93.01;101644.84;10505389;28;20134;-80
2022/06/21 02:47:45;;;;;;;0.00;0.00;;;;;;;7.88;91.25;101642.50;10521175;28;20047;-80
2022/06/21 02:52:50;;;;;;;1.35;0.40;;;;;;;7.84;91.08;101663.66;10530224;28;20502;-81
2022/06/21 02:57:59;;;;;;;0.38;0.38;;;;;;;7.40;89.91;101682.03;10551935;28;20036;-81
2022/06/21 03:03:05;;;;;;;0.40;0.40;;;;;;;7.50;89.49;101687.63;10527447;28;20048;-81
2022/06/21 03:08:08;;;;;;;0.00;0.00;;;;;;;7.25;88.83;101683.81;10540720;28;20040;-81
2022/06/21 03:13:15;;;;;;;0.17;0.17;;;;;;;7.20;89.49;101683.56;10546139;28;20051;-81
2022/06/21 03:18:22;;;;;;;0.43;0.25;;;;;;;7.28;90.20;101684.84;10525274;28;20366;-81
2022/06/21 03:23:24;;;;;;;0.45;0.10;;;;;;;7.30;92.44;101683.25;10542642;28;20491;-79
2022/06/21 03:28:41;;;;;;;0.75;0.50;;;;;;;7.14;92.20;101673.91;10540029;28;20545;-80
2022/06/21 03:33:46;;;;;;;0.28;0.25;;;;;;;7.40;93.39;101681.16;10525479;28;20056;-80
2022/06/21 03:38:53;;;;;;;0.30;0.20;;;;;;;7.56;96.08;101683.69;10542044;28;20153;-80
2022/06/21 03:43:59;;;;;;;0.22;0.10;;;;;;;7.44;91.22;101654.88;10521922;28;20040;-80
2022/06/21 03:49:19;;;;;;;0.05;0.05;;;;;;;7.26;92.29;101665.06;10535501;28;20043;-80
2022/06/21 03:54:30;;;;;;;0.30;0.30;;;;;;;7.62;94.65;101676.31;10535136;28;20047;-80
2022/06/21 03:59:40;;;;;;;0.47;0.43;;;;;;;7.75;93.08;101682.06;10562371;28;20070;-80
2022/06/21 04:04:55;;;;;;;0.00;0.00;;;;;;;7.48;95.29;101677.31;10578135;28;20044;-80
2022/06/21 04:10:06;;;;;;;0.35;0.10;;;;;;;7.51;95.79;101662.06;10562176;28;20096;-80
2022/06/21 04:15:17;;;;;;;0.40;0.30;;;;;;;7.80;98.66;101660.06;10503714;28;20055;-80
2022/06/21 04:20:21;;;;;;;0.73;0.40;;;;;;;8.38;100.00;101677.41;10502629;28;20056;-80
2022/06/21 04:25:31;;;;;;;0.77;0.68;;;;;;;8.71;100.00;101669.53;10539338;28;20040;-80
2022/06/21 04:30:55;;;;;;;0.43;0.43;;;;;;;8.76;100.00;101654.34;10538085;28;20475;-80
2022/06/21 04:36:12;;;;;;;0.35;0.25;;;;;;;9.17;100.00;101657.88;10521213;28;20072;-81
2022/06/21 04:41:23;;;;;;;0.00;0.00;;;;;;;9.69;100.00;101648.06;10521156;28;20120;-81
2022/06/21 04:46:35;;;;;;;0.55;0.47;;;;;;;9.96;98.29;101650.00;10535854;28;20507;-80
2022/06/21 04:51:54;;;;;;;0.17;0.17;;;;;;;9.79;99.57;101652.75;10528379;28;20085;-80
2022/06/21 04:57:10;;;;;;;0.20;0.20;;;;;;;10.32;100.00;101652.25;10537972;28;20044;-81
2022/06/21 05:02:34;;;;;;;0.95;0.30;;;;;;;10.40;98.75;101661.22;10543852;28;20082;-81
2022/06/21 05:07:52;;;;;;;0.20;0.10;;;;;;;10.62;96.94;101662.03;10533889;28;20082;-81
2022/06/21 05:12:57;;;;;;;1.27;0.47;;;;;;;10.72;99.04;101664.13;10523411;28;20452;-81
2022/06/21 05:18:04;;;;;;;1.38;0.57;;;;;;;10.98;98.95;101671.97;10522944;28;20388;-80
2022/06/21 05:23:09;;;;;;;0.55;0.50;;;;;;;11.25;96.78;101653.16;10544131;28;20487;-81
2022/06/21 05:28:39;;;;;;;0.20;0.20;;;;;;;11.47;95.29;101656.47;10529406;28;20089;-81
2022/06/21 05:34:12;;;;;;;0.22;0.22;;;;;;;11.81;95.20;101636.94;10542083;28;20054;-80
2022/06/21 05:39:22;;;;;;;1.20;0.40;;;;;;;12.09;96.26;101633.56;10492366;28;20079;-80
2022/06/21 05:44:32;;;;;;;0.20;0.20;;;;;;;12.26;94.51;101618.59;10544488;28;20059;-78
2022/06/21 05:49:36;;;;;;;0.47;0.47;;;;;;;12.45;92.74;101629.50;10552725;28;20048;-80
2022/06/21 05:54:54;;;;;;;0.85;0.35;;;;;;;12.74;92.29;101613.94;10523396;28;20040;-78
2022/06/21 06:00:01;;;;;;;0.22;0.22;;;;;;;13.04;91.65;101607.88;10540673;28;20085;-80
2022/06/21 06:05:13;;;;;;;0.45;0.40;;;;;;;13.28;91.22;101612.81;10536357;28;20090;-80
2022/06/21 06:10:17;;;;;;;0.30;0.30;;;;;;;13.10;88.82;101610.63;10522957;28;20044;-80
2022/06/21 06:15:47;;;;;;;1.65;0.65;;;;;;;13.36;88.53;101606.13;10539535;28;20052;-79
2022/06/21 06:21:00;;;;;;;0.35;0.28;;;;;;;13.64;86.81;101622.38;10520136;28;20052;-79
2022/06/21 06:26:06;;;;;;;0.55;0.38;;;;;;;13.82;85.49;101611.59;10532508;28;20142;-79
2022/06/21 06:31:26;;;;;;;0.70;0.50;;;;;;;13.91;85.07;101611.81;10546842;28;20040;-80
2022/06/21 06:36:33;;;;;;;0.30;0.10;;;;;;;14.22;83.81;101612.53;10543040;28;20097;-80
2022/06/21 06:42:00;;;;;;;0.47;0.28;;;;;;;14.18;81.95;101623.66;10541759;28;20040;-80
2022/06/21 06:47:03;;;;;;;1.50;0.47;;;;;;;14.75;79.52;101616.25;10545153;28;20044;-80
2022/06/21 06:52:24;;;;;;;0.35;0.30;;;;;;;15.09;77.71;101619.47;10524298;28;20100;-80
2022/06/21 06:57:32;;;;;;;0.35;0.32;;;;;;;15.92;74.75;101632.16;10548637;28;20048;-80
2022/06/21 07:02:41;;;;;;;0.47;0.40;;;;;;;16.00;70.02;101638.34;10507898;28;20486;-81
2022/06/21 07:07:51;;;;;;;0.38;0.38;;;;;;;16.76;67.47;101632.47;10534920;28;20491;-82
2022/06/21 07:12:54;;;;;;;1.15;0.50;;;;;;;16.77;66.94;101649.81;10549848;28;20437;-80
2022/06/21 07:17:57;;;;;;;0.20;0.20;;;;;;;17.28;66.55;101649.53;10530665;28;20062;-81
2022/06/21 07:23:41;;;;;;;0.10;0.10;;;;;;;17.85;66.18;101643.94;10554057;28;20039;-81
2022/06/21 07:28:51;;;;;;;0.00;0.00;;;;;;;17.77;63.87;101647.34;10549126;28;20093;-81
2022/06/21 07:34:03;;;;;;;0.73;0.22;;;;;;;18.41;60.95;101654.78;10546358;28;20101;-81
2022/06/21 07:39:16;;;;;;;0.17;0.10;;;;;;;18.65;61.00;101649.66;10541993;28;20044;-81
2022/06/21 07:44:55;;;;;;;0.47;0.22;;;;;;;18.99;57.08;101652.44;10547921;28;20032;-80
2022/06/21 07:50:30;;;;;;;0.38;0.20;;;;;;;18.14;57.01;101651.13;10520375;28;20054;-81
2022/06/21 07:55:50;;;;;;;0.45;0.45;;;;;;;19.15;55.63;101642.03;10547194;28;20052;-81
2022/06/21 08:11:43;;;;;;;1.13;0.40;;;;;;;18.79;55.33;101635.81;10536547;28;20036;-81
2022/06/21 08:16:53;;;;;;;0.10;0.10;;;;;;;19.68;52.68;101618.53;10552998;28;20065;-81
2022/06/21 08:22:07;;;;;;;0.73;0.15;;;;;;;20.33;51.20;101613.22;10532376;28;20106;-82
2022/06/21 08:27:16;;;;;;;0.10;0.10;;;;;;;20.55;49.54;101604.41;10524482;28;20044;-82
2022/06/21 08:32:45;;;;;;;0.10;0.00;;;;;;;20.26;49.63;101613.25;10537073;28;20464;-81
2022/06/21 08:38:11;;;;;;;0.00;0.00;;;;;;;20.35;50.71;101608.84;10528597;28;20040;-81
2022/06/21 08:43:34;;;;;;;0.00;0.00;;;;;;;21.03;47.96;101601.53;10536820;28;20036;-82
2022/06/21 08:49:11;;;;;;;0.82;0.57;;;;;;;20.88;49.33;101586.81;10534403;28;20426;-81
2022/06/21 08:54:41;;;;;;;0.10;0.10;;;;;;;20.32;49.68;101585.31;10486841;28;20089;-81
2022/06/21 09:00:03;;;;;;;0.10;0.10;;;;;;;21.45;48.69;101567.16;10536897;28;20047;-81
2022/06/21 09:05:41;;;;;;;0.20;0.10;;;;;;;20.25;46.13;101564.41;10536898;28;20059;-80
2022/06/21 09:10:54;;;;;;;0.00;0.00;;;;;;;21.63;46.71;101565.31;10535852;28;20043;-81
2022/06/21 09:16:00;;;;;;;0.10;0.10;;;;;;;21.63;45.38;101560.91;10517706;28;20491;-81
2022/06/21 09:21:25;;;;;;;0.08;0.08;;;;;;;21.49;44.47;101555.75;10521334;28;20654;-81
2022/06/21 09:26:55;;;;;;;0.10;0.10;;;;;;;20.94;48.63;101559.69;10520335;28;20487;-81
2022/06/21 09:32:14;;;;;;;0.05;0.05;;;;;;;21.32;47.25;101549.81;10500159;28;20047;-81
2022/06/21 09:37:27;;;;;;;0.38;0.38;;;;;;;20.71;47.01;101544.09;10533619;28;20044;-81
2022/06/21 09:42:34;;;;;;;0.00;0.00;;;;;;;21.73;45.89;101538.06;10509906;28;20089;-81
2022/06/21 09:47:42;;;;;;;0.10;0.10;;;;;;;20.97;46.68;101538.72;10514275;28;20048;-82
2022/06/21 09:52:52;;;;;;;0.08;0.08;;;;;;;21.55;43.93;101529.50;10535393;28;20046;-81
2022/06/21 09:58:09;;;;;;;0.08;0.08;;;;;;;22.08;44.78;101530.69;10539908;28;20113;-80
2022/06/21 10:03:30;;;;;;;0.03;0.03;;;;;;;22.52;44.07;101531.06;10541980;28;20495;-80
2022/06/21 10:08:58;;;;;;;0.15;0.15;;;;;;;21.34;41.93;101527.06;10519983;28;20044;-81
2022/06/21 10:14:21;;;;;;;0.43;0.20;;;;;;;22.10;41.77;101514.03;10524841;28;20044;-81
2022/06/21 10:20:07;;;;;;;0.00;0.00;;;;;;;20.87;42.02;101508.25;10522861;28;20066;-80
2022/06/21 10:25:38;;;;;;;0.22;0.00;;;;;;;20.96;43.97;101489.84;10372355;28;20409;-81
2022/06/21 10:30:55;;;;;;;0.00;0.00;;;;;;;21.01;44.33;101493.28;10508209;28;20052;-80
2022/06/21 10:36:10;;;;;;;0.00;0.00;;;;;;;21.24;44.51;101500.97;10536090;28;20403;-80
2022/06/21 10:41:38;;;;;;;1.17;0.10;;;;;;;21.17;45.94;101478.31;10538088;28;20044;-80
2022/06/21 10:46:58;;;;;;;0.03;0.03;;;;;;;20.72;44.00;101469.91;10498704;28;20544;-80
2022/06/21 10:52:26;;;;;;;1.13;0.20;;;;;;;21.87;45.63;101464.50;10518125;28;20277;-80
2022/06/21 10:58:03;;;;;;;1.10;0.20;;;;;;;21.70;41.76;101462.09;10539583;28;20151;-80
2022/06/21 11:03:37;;;;;;;1.85;0.35;;;;;;;22.67;40.22;101467.81;10541361;28;20298;-80
2022/06/21 11:08:58;;;;;;;0.08;0.05;;;;;;;21.64;40.55;101470.00;10480551;28;20044;-78
2022/06/21 11:14:18;;;;;;;0.00;0.00;;;;;;;22.31;42.73;101467.41;10515117;28;20048;-80
2022/06/21 11:19:57;;;;;;;0.15;0.05;;;;;;;21.97;39.90;101470.50;10534907;28;20090;-80
2022/06/21 11:25:04;;;;;;;3.20;0.30;;;;;;;21.93;40.95;101464.41;10521271;28;20127;-80
2022/06/21 11:30:36;;;;;;;0.43;0.20;;;;;;;23.01;39.48;101459.34;10540281;28;20040;-81
2022/06/21 11:35:50;;;;;;;0.00;0.00;;;;;;;22.62;39.68;101459.09;10541247;28;20499;-81
2022/06/21 11:41:06;;;;;;;0.00;0.00;;;;;;;22.16;39.18;101466.72;10547432;28;20044;-81
2022/06/21 11:46:26;;;;;;;0.00;0.00;;;;;;;22.50;39.15;101454.91;10541405;28;20044;-81
2022/06/21 11:51:41;;;;;;;0.00;0.00;;;;;;;23.51;38.92;101442.69;10532617;28;20448;-81
2022/06/21 11:57:08;;;;;;;4.07;0.20;;;;;;;23.03;36.62;101452.31;10543550;28;20031;-80
2022/06/21 12:02:24;;;;;;;0.00;0.00;;;;;;;22.73;39.23;101446.69;10518180;28;20044;-81
2022/06/21 12:07:43;;;;;;;0.10;0.00;;;;;;;23.16;35.66;101454.72;10539509;28;20368;-80
2022/06/21 12:12:50;;;;;;;0.28;0.28;;;;;;;22.17;39.00;101452.72;10518912;28;20047;-81
2022/06/21 12:17:59;;;;;;;0.10;0.00;;;;;;;23.52;37.55;101447.06;10538965;28;20044;-81
2022/06/21 12:23:36;;;;;;;0.10;0.00;;;;;;;23.31;38.40;101441.34;10524233;28;20135;-80
2022/06/21 12:28:39;;;;;;;0.80;0.68;;;;;;;23.11;37.65;101442.53;10524543;28;20052;-81
2022/06/21 12:33:47;;;;;;;0.00;0.00;;;;;;;22.47;39.53;101447.94;10528916;28;20044;-80
2022/06/21 12:38:58;;;;;;;0.00;0.00;;;;;;;22.17;39.58;101442.22;10540881;28;20063;-81
2022/06/21 12:44:08;;;;;;;0.10;0.10;;;;;;;21.94;38.08;101431.16;10537644;28;20039;-81
2022/06/21 12:49:33;;;;;;;0.03;0.03;;;;;;;22.71;40.22;101414.31;10500732;28;20475;-80
2022/06/21 12:54:59;;;;;;;1.25;0.35;;;;;;;23.05;39.47;101418.97;10515885;28;20068;-81
2022/06/21 13:00:13;;;;;;;0.00;0.00;;;;;;;22.90;36.99;101419.25;10539404;28;20047;-80
2022/06/21 13:05:38;;;;;;;0.15;0.05;;;;;;;23.26;38.86;101407.25;10517193;28;20091;-81
2022/06/21 13:10:46;;;;;;;0.00;0.00;;;;;;;22.60;37.14;101403.16;10511476;28;20044;-80
2022/06/21 13:16:03;;;;;;;0.00;0.00;;;;;;;22.44;37.36;101399.88;10530125;28;20047;-80
2022/06/21 13:21:35;;;;;;;0.00;0.00;;;;;;;22.08;37.50;101387.25;10510422;28;20040;-80
2022/06/21 13:26:46;;;;;;;0.00;0.00;;;;;;;22.44;37.44;101382.38;10534490;28;20093;-80
2022/06/21 13:31:53;;;;;;;0.10;0.10;;;;;;;22.78;37.94;101389.69;10516158;28;20044;-81
2022/06/21 13:36:59;;;;;;;0.10;0.10;;;;;;;22.92;38.06;101386.81;10535332;28;20039;-79
2022/06/21 13:48:05;;;;;;;0.00;0.00;;;;;;;22.70;38.40;101367.09;10540996;28;20051;-81
2022/06/21 13:53:17;;;;;;;0.08;0.08;;;;;;;22.74;39.65;101369.63;10530654;28;20044;-81
2022/06/21 13:58:39;;;;;;;0.00;0.00;;;;;;;22.96;39.97;101362.22;10517913;28;20437;-81
2022/06/21 14:03:52;;;;;;;0.00;0.00;;;;;;;22.45;39.19;101363.09;10534198;28;20048;-80
2022/06/21 14:09:03;;;;;;;0.00;0.00;;;;;;;22.48;37.69;101356.94;10538070;28;20036;-81
2022/06/21 14:14:27;;;;;;;1.33;0.10;;;;;;;22.84;43.14;101343.19;10529713;28;20040;-81
2022/06/21 14:19:37;;;;;;;0.00;0.00;;;;;;;23.29;40.25;101336.22;10517933;28;20044;-81
2022/06/21 14:25:00;;;;;;;0.10;0.10;;;;;;;22.89;40.39;101343.97;10523121;28;20044;-80
2022/06/21 14:30:10;;;;;;;0.00;0.00;;;;;;;23.79;40.95;101336.94;10522435;28;20521;-80
2022/06/21 14:35:44;;;;;;;0.00;0.00;;;;;;;23.62;37.63;101340.78;10514096;28;20043;-81
2022/06/21 14:41:16;;;;;;;0.10;0.00;;;;;;;23.37;40.37;101324.69;10530018;28;20463;-81
2022/06/21 14:46:27;;;;;;;0.00;0.00;;;;;;;22.94;38.64;101321.09;10531686;28;20052;-81
2022/06/21 14:51:57;;;;;;;0.15;0.10;;;;;;;23.36;37.66;101326.41;10542874;28;20044;-81
2022/06/21 14:57:07;;;;;;;;;;;;;;;23.13;37.45;101314.59;10521323;28;20568;-81
2022/06/21 15:02:33;;;;;;;0.00;0.00;;;;;;;23.76;38.71;101304.53;10547389;28;19920;-80
2022/06/21 15:07:56;;;;;;;0.00;0.00;;;;;;;23.50;40.03;101312.09;10540204;28;20113;-81
2022/06/21 15:13:15;;;;;;;0.00;0.00;;;;;;;23.12;36.30;101302.34;10538981;28;20044;-80
2022/06/21 15:18:27;;;;;;;0.20;0.10;;;;;;;22.94;36.50;101293.06;10523930;28;20058;-81
2022/06/21 15:23:56;;;;;;;0.52;0.30;;;;;;;22.78;36.26;101297.75;10530277;28;20103;-81
2022/06/21 15:29:13;;;;;;;0.00;0.00;;;;;;;22.86;35.49;101289.72;10542290;28;20052;-81
2022/06/21 15:34:25;;;;;;;0.00;0.00;;;;;;;23.19;37.80;101276.84;10531736;28;20509;-81
2022/06/21 15:39:36;;;;;;;0.13;0.13;;;;;;;22.84;36.13;101277.50;10539468;28;20540;-80
2022/06/21 15:44:59;;;;;;;0.00;0.00;;;;;;;23.27;36.02;101268.81;10537250;28;20036;-80
2022/06/21 15:50:28;;;;;;;0.00;0.00;;;;;;;23.05;36.87;101266.56;10502180;28;20483;-80
2022/06/21 15:55:44;;;;;;;0.00;0.00;;;;;;;22.25;36.05;101282.03;10538190;28;20043;-81
2022/06/21 16:00:50;;;;;;;0.00;0.00;;;;;;;21.91;35.46;101271.22;10523132;28;20077;-81
2022/06/21 16:06:22;;;;;;;0.00;0.00;;;;;;;21.95;38.95;101265.03;10540216;28;20450;-81
2022/06/21 16:11:27;;;;;;;0.00;0.00;;;;;;;21.94;38.12;101266.78;10518343;28;20048;-80
2022/06/21 16:16:43;;;;;;;0.00;0.00;;;;;;;22.02;39.82;101258.78;10535831;28;20468;-81
2022/06/21 16:21:52;;;;;;;0.00;0.00;;;;;;;22.10;39.21;101259.53;10558301;28;20066;-80
2022/06/21 16:27:16;;;;;;;0.00;0.00;;;;;;;21.80;38.85;101258.28;10556079;28;20112;-80
2022/06/21 16:38:07;;;;;;;0.00;0.00;;;;;;;21.79;39.57;101254.78;10570624;28;20105;-81
2022/06/21 16:43:16;;;;;;;0.00;0.00;;;;;;;21.87;40.51;101247.66;10575228;28;20044;-80
2022/06/21 16:48:21;;;;;;;;;;;;;;;22.02;43.17;101248.28;10525319;28;20479;-81
2022/06/21 16:53:29;;;;;;;0.45;0.15;;;;;;;22.01;41.77;101236.06;10535072;28;20444;-80
2022/06/21 16:58:53;;;;;;;0.10;0.03;;;;;;;22.18;42.06;101243.69;10535227;28;20035;-81
2022/06/21 17:04:00;;;;;;;0.00;0.00;;;;;;;22.02;43.93;101237.81;10537452;28;20597;-80
2022/06/21 17:09:10;;;;;;;0.08;0.08;;;;;;;21.94;47.13;101244.94;10541959;28;20560;-80
2022/06/21 17:14:15;;;;;;;0.00;0.00;;;;;;;21.89;45.20;101242.41;10528685;28;20078;-80
2022/06/21 17:19:17;;;;;;;0.00;0.00;;;;;;;21.71;44.86;101238.28;10517382;28;20039;-75
2022/06/21 17:24:47;;;;;;;0.00;0.00;;;;;;;21.71;44.55;101235.66;10532594;28;20077;-75
2022/06/21 17:30:00;;;;;;;0.00;0.00;;;;;;;21.71;48.59;101233.91;10528619;28;20522;-76
2022/06/21 17:35:37;;;;;;;0.00;0.00;;;;;;;21.85;46.79;101238.97;10529510;28;20072;-76
2022/06/21 17:40:42;;;;;;;0.10;0.10;;;;;;;21.34;48.09;101238.78;10530787;28;20082;-75
2022/06/21 17:45:51;;;;;;;0.08;0.00;;;;;;;21.26;48.96;101231.03;10526605;28;20052;-75
2022/06/21 17:51:03;;;;;;;0.20;0.20;;;;;;;21.20;48.97;101229.34;10534516;28;20446;-74
2022/06/21 17:56:10;;;;;;;0.43;0.10;;;;;;;21.06;52.87;101218.19;10510457;28;20052;-74
2022/06/21 18:01:24;;;;;;;0.00;0.00;;;;;;;21.13;53.76;101225.09;10533387;28;20051;-75
2022/06/21 18:06:36;;;;;;;0.00;0.00;;;;;;;20.56;52.25;101221.38;10526830;28;20064;-75
2022/06/21 18:12:01;;;;;;;0.03;0.03;;;;;;;20.68;50.44;101222.09;10538157;28;20123;-74
2022/06/21 18:17:14;;;;;;;0.00;0.00;;;;;;;20.77;52.10;101227.28;10526229;28;20094;-74
2022/06/21 18:22:56;;;;;;;0.00;0.00;;;;;;;20.65;52.28;101237.88;10514592;28;20048;-75
2022/06/21 18:28:11;;;;;;;0.10;0.10;;;;;;;20.79;51.66;101233.38;10537715;28;20047;-74
2022/06/21 18:33:13;;;;;;;0.00;0.00;;;;;;;20.65;54.04;101237.88;10527796;28;20128;-75
2022/06/21 18:39:14;;;;;;;0.10;0.10;;;;;;;20.52;58.23;101239.72;10539305;28;20533;-75
2022/06/21 18:44:36;;;;;;;0.10;0.10;;;;;;;20.45;58.22;101252.00;10496524;28;20955;-74
2022/06/21 18:50:15;;;;;;;0.00;0.00;;;;;;;20.57;57.86;101257.13;10537227;28;20048;-75
2022/06/21 18:55:55;;;;;;;0.00;0.00;;;;;;;20.38;55.35;101266.03;10540912;28;20054;-75
2022/06/21 19:01:10;;;;;;;1.10;0.68;;;;;;;20.29;54.21;101272.22;10529755;28;20121;-75
2022/06/21 19:12:13;;;;;;;0.00;0.00;;;;;;;20.09;54.29;101285.44;10533355;28;20425;-74
2022/06/21 19:17:47;;;;;;;0.10;0.10;;;;;;;19.93;56.14;101287.31;10538086;28;20124;-76
2022/06/21 19:23:23;;;;;;;0.00;0.00;;;;;;;19.90;58.98;101289.94;10475781;28;20705;-74
2022/06/21 19:28:56;;;;;;;0.00;0.00;;;;;;;19.60;57.84;101290.09;10537728;28;20036;-77
2022/06/21 19:34:04;;;;;;;0.00;0.00;;;;;;;19.52;57.37;101286.66;10512221;28;20036;-75
2022/06/21 19:39:09;;;;;;;0.00;0.00;;;;;;;19.43;58.49;101294.53;10514506;28;20102;-77
2022/06/21 19:44:39;;;;;;;0.05;0.05;;;;;;;19.53;55.97;101295.34;10514395;28;20036;-75
2022/06/21 19:49:41;;;;;;;0.00;0.00;;;;;;;19.37;56.64;101294.56;10519822;28;20036;-75
2022/06/21 19:54:49;;;;;;;0.00;0.00;;;;;;;19.29;57.05;101292.88;10511363;28;20042;-75
2022/06/21 20:00:09;;;;;;;0.08;0.08;;;;;;;19.14;56.21;101287.69;10511771;28;20050;-76
2022/06/21 20:05:32;;;;;;;0.00;0.00;;;;;;;19.09;56.72;101294.69;10515970;28;20040;-76
2022/06/21 20:10:45;;;;;;;0.00;0.00;;;;;;;19.06;58.69;101302.50;10539224;28;20094;-76
2022/06/21 20:15:56;;;;;;;0.00;0.00;;;;;;;18.99;57.27;101305.16;10534527;28;20055;-75
2022/06/21 20:21:27;;;;;;;0.00;0.00;;;;;;;18.86;58.05;101306.03;10540546;28;20062;-74
2022/06/21 20:27:01;;;;;;;0.20;0.17;;;;;;;18.37;63.93;101310.41;10532878;28;20051;-75
2022/06/21 20:32:20;;;;;;;0.00;0.00;;;;;;;18.17;64.56;101318.22;10535226;28;20044;-75
2022/06/21 20:37:29;;;;;;;;;;;;;;;17.95;62.67;101317.34;10535292;28;20128;-75
2022/06/21 20:48:11;;;;;;;0.00;0.00;;;;;;;17.74;62.33;101320.72;10529989;28;20048;-76
2022/06/21 20:53:16;;;;;;;0.10;0.10;;;;;;;17.61;63.40;101306.78;10527686;28;20035;-76
2022/06/21 20:58:18;;;;;;;0.10;0.10;;;;;;;17.75;65.02;101306.81;10509201;28;20093;-76
2022/06/21 21:03:22;;;;;;;0.10;0.10;;;;;;;17.53;63.01;101305.91;10529452;28;20040;-76
2022/06/21 21:08:28;;;;;;;0.65;0.17;;;;;;;17.70;61.79;101299.00;10537399;28;20068;-76
2022/06/21 21:13:36;;;;;;;0.00;0.00;;;;;;;17.49;64.54;101302.41;10535473;28;20044;-76
2022/06/21 21:18:43;;;;;;;0.22;0.10;;;;;;;17.39;65.79;101309.31;10516616;28;20056;-76
2022/06/21 21:23:48;;;;;;;0.03;0.03;;;;;;;17.27;67.49;101298.84;10527406;28;20044;-75
2022/06/21 21:28:53;;;;;;;0.05;0.05;;;;;;;16.75;69.44;101302.88;10515691;28;20105;-77
2022/06/21 21:34:14;;;;;;;0.05;0.05;;;;;;;16.76;70.30;101296.81;10527368;28;20047;-76
2022/06/21 21:39:19;;;;;;;0.10;0.10;;;;;;;16.89;67.04;101305.56;10514628;28;20127;-76
2022/06/21 21:44:24;;;;;;;0.28;0.20;;;;;;;16.43;69.99;101300.88;10529944;28;20093;-77
2022/06/21 21:49:34;;;;;;;0.03;0.00;;;;;;;16.27;69.77;101296.44;10533532;28;20044;-75
2022/06/21 21:54:42;;;;;;;0.00;0.00;;;;;;;16.14;70.11;101291.13;10523579;28;20071;-76
2022/06/21 21:59:49;;;;;;;0.00;0.00;;;;;;;16.23;68.91;101292.94;10533431;28;20121;-76
2022/06/21 22:05:00;;;;;;;0.10;0.10;;;;;;;16.34;69.04;101293.03;10547418;28;20056;-76
2022/06/21 22:10:23;;;;;;;0.03;0.03;;;;;;;16.41;70.64;101292.22;10542035;28;20048;-76
2022/06/21 22:15:47;;;;;;;0.30;0.20;;;;;;;16.33;72.07;101299.09;10541863;28;20063;-76
2022/06/21 22:20:59;;;;;;;0.38;0.30;;;;;;;16.50;73.73;101287.06;10539000;28;20497;-76
2022/06/21 22:26:09;;;;;;;0.20;0.10;;;;;;;16.48;74.91;101299.22;10518942;28;20036;-76
2022/06/21 22:31:14;;;;;;;0.32;0.30;;;;;;;16.48;76.56;101301.81;10515682;28;20062;-76
2022/06/21 22:36:21;;;;;;;0.40;0.22;;;;;;;16.45;78.14;101304.38;10503856;28;20168;-74
2022/06/21 22:41:25;;;;;;;0.65;0.57;;;;;;;16.52;79.12;101304.44;10528509;28;20040;-76
2022/06/21 22:46:29;;;;;;;0.00;0.00;;;;;;;16.50;79.98;101301.81;10520156;28;20054;-76
2022/06/21 22:51:33;;;;;;;0.20;0.13;;;;;;;16.46;80.73;101316.53;10526531;28;20094;-75
2022/06/21 22:56:55;;;;;;;0.15;0.15;;;;;;;16.53;81.80;101311.38;10533178;28;20130;-76
2022/06/21 23:02:11;;;;;;;0.65;0.30;;;;;;;16.49;82.31;101326.09;10525980;28;20521;-75
2022/06/21 23:07:34;;;;;;;0.10;0.10;;;;;;;16.52;82.21;101314.81;10517913;28;20113;-76
2022/06/21 23:12:36;;;;;;;0.28;0.28;;;;;;;16.47;82.82;101307.88;10539513;28;20047;-75
2022/06/21 23:17:39;;;;;;;0.75;0.75;;;;;;;16.44;82.75;101318.25;10540311;28;20052;-76
2022/06/21 23:22:41;;;;;;;0.10;0.10;;;;;;;16.43;82.68;101321.69;10538986;28;20035;-76
2022/06/21 23:27:48;;;;;;;0.10;0.10;;;;;;;16.32;84.29;101315.53;10535580;28;20063;-76
2022/06/21 23:32:54;;;;;;;0.20;0.17;;;;;;;16.23;85.35;101323.25;10529393;28;20040;-75
2022/06/21 23:37:57;;;;;;;0.65;0.40;;;;;;;16.15;85.44;101325.78;10538621;28;20044;-76
2022/06/21 23:43:00;;;;;;;0.22;0.22;;;;;;;16.10;85.39;101317.94;10534179;28;20040;-76
2022/06/21 23:48:16;;;;;;;0.68;0.47;;;;;;;15.89;86.08;101328.13;10520074;28;20043;-75
2022/06/21 23:53:24;;;;;;;0.60;0.35;;;;;;;15.90;87.01;101341.13;10520283;28;20122;-75
2022/06/21 23:58:27;;;;;;;0.65;0.25;;;;;;;15.73;86.90;101338.31;10535960;28;20097;-75
